createdAt,value
2024-01-12T00:01:09.493Z,43.80
2024-01-12T00:03:37.937Z,43.23
2024-01-12T00:06:06.262Z,42.29
2024-01-12T00:08:34.357Z,41.36
2024-01-12T00:11:01.145Z,42.43
2024-01-12T00:13:27.752Z,43.87
2024-01-12T00:15:54.622Z,43.12
2024-01-12T00:18:21.428Z,43.28
2024-01-12T00:20:48.151Z,44.03
2024-01-12T00:23:15.248Z,45.89
2024-01-12T00:25:42.178Z,43.87
2024-01-12T00:28:12.119Z,43.55
2024-01-12T00:30:40.485Z,43.36
2024-01-12T00:33:07.855Z,43.29
2024-01-12T00:35:34.788Z,42.85
2024-01-12T00:38:01.437Z,44.09
2024-01-12T00:40:28.001Z,43.93
2024-01-12T00:42:54.730Z,42.30
2024-01-12T00:45:21.534Z,41.92
2024-01-12T00:47:48.320Z,43.48
2024-01-12T00:50:15.082Z,43.54
2024-01-12T00:52:41.802Z,41.95
2024-01-12T00:55:08.784Z,42.53
2024-01-12T00:57:35.548Z,43.44
2024-01-12T01:00:02.261Z,45.18
2024-01-12T01:02:29.008Z,43.68
2024-01-12T01:04:56.500Z,43.19
2024-01-12T01:07:23.812Z,42.75
2024-01-12T01:09:50.931Z,43.72
2024-01-12T01:12:17.507Z,44.44
2024-01-12T01:14:44.150Z,41.57
2024-01-12T01:17:10.791Z,42.98
2024-01-12T01:19:37.489Z,43.95
2024-01-12T01:22:04.609Z,39.99
2024-01-12T01:24:32.831Z,40.67
2024-01-12T01:26:59.530Z,43.92
2024-01-12T01:29:26.198Z,43.92
2024-01-12T01:31:52.799Z,43.76
2024-01-12T01:34:19.685Z,44.73
2024-01-12T01:36:46.473Z,46.46
2024-01-12T01:39:13.612Z,49.04
2024-01-12T01:41:40.209Z,46.75
2024-01-12T01:44:06.931Z,46.64
2024-01-12T01:46:33.967Z,47.50
2024-01-12T01:49:00.969Z,46.54
2024-01-12T01:51:28.600Z,45.73
2024-01-12T01:53:55.969Z,47.15
2024-01-12T01:56:23.989Z,47.40
2024-01-12T01:58:51.432Z,47.76
2024-01-12T02:01:20.460Z,48.47
2024-01-12T02:03:49.461Z,48.94
2024-01-12T02:06:17.853Z,46.97
2024-01-12T02:08:47.736Z,46.58
2024-01-12T02:11:14.459Z,48.64
2024-01-12T02:13:41.235Z,48.07
2024-01-12T02:16:09.638Z,48.96
2024-01-12T02:18:36.701Z,47.80
2024-01-12T02:21:03.681Z,47.40
2024-01-12T02:23:30.386Z,48.14
2024-01-12T02:25:57.423Z,48.55
2024-01-12T02:28:24.132Z,51.18
2024-01-12T02:30:51.744Z,50.41
2024-01-12T02:33:18.605Z,46.81
2024-01-12T02:35:45.324Z,46.60
2024-01-12T02:38:12.098Z,49.22
2024-01-12T02:40:38.711Z,46.23
2024-01-12T02:43:05.433Z,46.64
2024-01-12T02:45:32.054Z,46.11
2024-01-12T02:47:58.897Z,46.61
2024-01-12T02:50:25.809Z,45.39
2024-01-12T02:52:52.423Z,45.71
2024-01-12T02:55:19.296Z,44.24
2024-01-12T02:57:46.377Z,44.70
2024-01-12T03:00:14.040Z,44.50
2024-01-12T03:02:40.771Z,46.42
2024-01-12T03:05:08.165Z,45.58
2024-01-12T03:07:34.898Z,46.08
2024-01-12T03:10:02.047Z,43.80
2024-01-12T03:12:28.635Z,44.07
2024-01-12T03:14:55.434Z,44.44
2024-01-12T03:17:22.326Z,44.57
2024-01-12T03:19:49.003Z,45.14
2024-01-12T03:22:15.635Z,45.53
2024-01-12T03:24:42.246Z,45.89
2024-01-12T03:27:08.862Z,45.14
2024-01-12T03:29:35.612Z,44.71
2024-01-12T03:32:02.294Z,43.66
2024-01-12T03:34:29.251Z,44.29
2024-01-12T03:36:56.805Z,45.03
2024-01-12T03:39:23.392Z,45.03
2024-01-12T03:41:50.073Z,46.21
2024-01-12T03:44:16.754Z,45.62
2024-01-12T03:46:43.487Z,44.18
2024-01-12T03:49:10.253Z,45.26
2024-01-12T03:51:36.801Z,43.81
2024-01-12T03:54:03.791Z,45.81
2024-01-12T03:56:30.391Z,44.54
2024-01-12T03:58:56.992Z,43.72
2024-01-12T04:01:24.211Z,45.01
2024-01-12T04:03:51.065Z,46.69
2024-01-12T04:06:19.486Z,46.32
2024-01-12T04:08:46.189Z,46.89
2024-01-12T04:11:23.294Z,47.48
2024-01-12T04:13:50.241Z,46.63
2024-01-12T04:16:16.976Z,48.04
2024-01-12T04:18:43.848Z,46.40
2024-01-12T04:21:10.931Z,46.72
2024-01-12T04:23:39.414Z,47.05
2024-01-12T04:26:08.424Z,46.53
2024-01-12T04:28:35.561Z,46.01
2024-01-12T04:31:03.774Z,47.98
2024-01-12T04:33:32.536Z,47.58
2024-01-12T04:36:01.168Z,48.06
2024-01-12T04:38:28.866Z,46.85
2024-01-12T04:40:55.762Z,47.45
2024-01-12T04:43:22.491Z,47.59
2024-01-12T04:45:49.183Z,47.23
2024-01-12T04:48:15.945Z,46.14
2024-01-12T04:50:42.662Z,49.47
2024-01-12T04:53:09.262Z,49.90
2024-01-12T04:55:35.966Z,48.04
2024-01-12T04:58:04.393Z,46.26
2024-01-12T05:00:31.367Z,47.48
2024-01-12T05:02:58.153Z,47.67
2024-01-12T05:05:25.331Z,48.67
2024-01-12T05:07:52.313Z,48.92
2024-01-12T05:10:18.919Z,50.20
2024-01-12T05:12:45.783Z,49.94
2024-01-12T05:15:12.627Z,52.03
2024-01-12T05:17:39.346Z,51.22
2024-01-12T05:20:08.251Z,51.60
2024-01-12T05:22:36.853Z,50.96
2024-01-12T05:25:06.373Z,49.99
2024-01-12T05:27:33.248Z,50.29
2024-01-12T05:30:03.414Z,49.94
2024-01-12T05:32:31.269Z,50.08
2024-01-12T05:34:58.691Z,49.04
2024-01-12T05:37:25.383Z,49.24
2024-01-12T05:39:52.268Z,49.37
2024-01-12T05:42:18.953Z,48.02
2024-01-12T05:44:45.658Z,46.15
2024-01-12T05:47:12.433Z,50.23
2024-01-12T05:49:39.602Z,51.08
2024-01-12T05:52:06.873Z,51.37
2024-01-12T05:54:33.558Z,51.86
2024-01-12T05:57:00.465Z,53.55
2024-01-12T05:59:27.332Z,53.78
2024-01-12T06:01:55.198Z,51.22
2024-01-12T06:04:21.877Z,49.68
2024-01-12T06:06:49.586Z,46.23
2024-01-12T06:09:16.475Z,51.92
2024-01-12T06:11:45.134Z,49.73
2024-01-12T06:14:12.187Z,47.29
2024-01-12T06:16:39.003Z,46.44
2024-01-12T06:19:05.947Z,50.16
2024-01-12T06:21:32.804Z,56.42
2024-01-12T06:23:59.498Z,57.92
2024-01-12T06:26:26.250Z,55.43
2024-01-12T06:28:52.879Z,52.67
2024-01-12T06:31:19.511Z,52.80
2024-01-12T06:33:46.366Z,52.88
2024-01-12T06:36:13.211Z,49.28
2024-01-12T06:38:39.894Z,51.63
2024-01-12T06:41:06.518Z,54.90
2024-01-12T06:43:33.116Z,51.21
2024-01-12T06:45:59.724Z,50.87
2024-01-12T06:48:26.377Z,51.64
2024-01-12T06:50:53.052Z,51.33
2024-01-12T06:53:19.746Z,51.13
2024-01-12T06:55:46.649Z,55.71
2024-01-12T06:58:13.554Z,55.15
2024-01-12T07:00:40.179Z,57.64
2024-01-12T07:03:07.489Z,61.47
2024-01-12T07:05:34.472Z,59.43
2024-01-12T07:08:01.212Z,54.66
2024-01-12T07:10:27.829Z,53.62
2024-01-12T07:12:54.473Z,52.49
2024-01-12T07:15:21.591Z,51.84
2024-01-12T07:17:52.433Z,53.09
2024-01-12T07:20:19.884Z,51.69
2024-01-12T07:22:46.829Z,53.72
2024-01-12T07:25:13.613Z,54.39
2024-01-12T07:27:42.303Z,52.58
2024-01-12T07:30:10.302Z,52.87
2024-01-12T07:32:37.302Z,57.99
2024-01-12T07:35:04.695Z,61.61
2024-01-12T07:37:31.307Z,55.61
2024-01-12T07:39:57.967Z,53.38
2024-01-12T07:42:24.608Z,54.84
2024-01-12T07:44:51.265Z,52.98
2024-01-12T07:47:17.977Z,52.14
2024-01-12T07:49:44.770Z,58.18
2024-01-12T07:52:14.897Z,54.81
2024-01-12T07:54:44.288Z,54.54
2024-01-12T07:57:11.050Z,56.30
2024-01-12T07:59:37.772Z,53.73
2024-01-12T08:02:04.662Z,56.85
2024-01-12T08:04:31.215Z,55.27
2024-01-12T08:06:57.927Z,52.63
2024-01-12T08:09:24.508Z,52.38
2024-01-12T08:11:51.149Z,54.75
2024-01-12T08:14:17.863Z,53.86
2024-01-12T08:16:44.513Z,60.24
2024-01-12T08:19:11.212Z,76.71
2024-01-12T08:21:45.607Z,73.05
2024-01-12T08:24:19.080Z,79.78
2024-01-12T08:26:46.903Z,85.97
2024-01-12T08:29:13.701Z,78.93
2024-01-12T08:31:40.509Z,72.04
2024-01-12T08:34:07.276Z,72.04
2024-01-12T08:36:33.981Z,75.38
2024-01-12T08:39:00.726Z,74.27
2024-01-12T08:41:27.498Z,67.27
2024-01-12T08:43:54.885Z,67.13
2024-01-12T08:46:21.992Z,58.77
2024-01-12T08:48:50.419Z,57.38
2024-01-12T08:51:17.500Z,72.62
2024-01-12T08:53:44.500Z,75.47
2024-01-12T08:56:11.172Z,72.23
2024-01-12T08:58:39.201Z,70.71
2024-01-12T09:01:06.441Z,65.52
2024-01-12T09:03:33.387Z,68.44
2024-01-12T09:06:00.388Z,67.40
2024-01-12T09:08:27.408Z,64.96
2024-01-12T09:10:54.048Z,67.30
2024-01-12T09:13:20.774Z,63.21
2024-01-12T09:15:47.409Z,68.14
2024-01-12T09:18:14.351Z,77.37
2024-01-12T09:20:41.137Z,77.76
2024-01-12T09:23:07.834Z,72.26
2024-01-12T09:25:34.438Z,64.15
2024-01-12T09:28:01.720Z,45.95
2024-01-12T09:30:28.638Z,49.75
2024-01-12T09:32:55.495Z,55.25
2024-01-12T09:35:22.341Z,53.76
2024-01-12T09:37:49.009Z,60.86
2024-01-12T09:40:15.691Z,62.96
2024-01-12T09:42:45.251Z,55.72
2024-01-12T09:45:21.348Z,52.27
2024-01-12T09:47:51.198Z,50.62
2024-01-12T09:50:23.379Z,79.71
2024-01-12T09:52:52.549Z,56.13
2024-01-12T09:55:19.182Z,50.90
2024-01-12T09:57:47.305Z,44.16
2024-01-12T10:00:16.036Z,46.75
2024-01-12T10:02:43.431Z,44.48
2024-01-12T10:05:10.384Z,34.36
2024-01-12T10:07:37.566Z,32.92
2024-01-12T10:10:04.798Z,38.47
2024-01-12T10:12:31.495Z,34.67
2024-01-12T10:15:03.577Z,34.56
2024-01-12T10:17:33.023Z,26.58
2024-01-12T10:19:59.914Z,24.96
2024-01-12T10:22:26.599Z,21.42
2024-01-12T10:25:04.397Z,18.90
2024-01-12T10:27:32.338Z,20.73
2024-01-12T10:29:59.804Z,18.57
2024-01-12T10:32:27.681Z,15.72
2024-01-12T10:34:55.047Z,15.90
2024-01-12T10:37:23.503Z,15.44
2024-01-12T10:39:51.681Z,15.74
2024-01-12T10:42:22.077Z,15.97
2024-01-12T10:44:59.487Z,15.76
2024-01-12T10:47:35.058Z,16.06
2024-01-12T10:50:07.712Z,16.73
2024-01-12T10:53:22.015Z,16.17
2024-01-12T10:55:57.090Z,16.44
2024-01-12T10:58:24.672Z,15.88
2024-01-12T11:00:51.880Z,15.83
2024-01-12T11:03:21.595Z,15.00
2024-01-12T11:05:50.301Z,14.94
2024-01-12T11:08:21.739Z,15.66
2024-01-12T11:10:56.488Z,15.07
2024-01-12T11:13:24.905Z,14.45
2024-01-12T11:15:54.385Z,14.64
2024-01-12T11:18:21.741Z,14.55
2024-01-12T11:20:48.785Z,14.45
2024-01-12T11:23:15.682Z,13.88
2024-01-12T11:25:45.291Z,14.50
2024-01-12T11:28:15.916Z,14.76
2024-01-12T11:30:43.708Z,14.96
2024-01-12T11:33:10.629Z,14.11
2024-01-12T11:35:38.593Z,14.34
2024-01-12T11:38:10.938Z,13.52
2024-01-12T11:40:38.982Z,13.91
2024-01-12T11:43:06.816Z,14.84
2024-01-12T11:45:34.827Z,14.31
2024-01-12T11:48:05.085Z,13.45
2024-01-12T11:50:32.920Z,13.71
2024-01-12T11:53:01.945Z,13.66
2024-01-12T11:55:28.719Z,13.07
2024-01-12T11:57:56.907Z,13.76
2024-01-12T12:00:24.894Z,13.15
2024-01-12T12:02:55.437Z,13.46
2024-01-12T12:05:25.028Z,13.80
2024-01-12T12:07:52.193Z,14.92
2024-01-12T12:10:23.746Z,14.64
2024-01-12T12:12:56.928Z,14.00
2024-01-12T12:15:26.754Z,14.79
2024-01-12T12:17:55.636Z,15.20
2024-01-12T12:20:24.815Z,15.98
2024-01-12T12:22:51.978Z,16.16
2024-01-12T12:25:18.701Z,15.79
2024-01-12T12:27:48.636Z,15.16
2024-01-12T12:30:18.427Z,16.03
2024-01-12T12:32:47.692Z,16.67
2024-01-12T12:35:19.076Z,15.58
2024-01-12T12:37:48.212Z,16.61
2024-01-12T12:40:17.764Z,15.66
2024-01-12T12:42:49.073Z,15.61
2024-01-12T12:45:18.658Z,16.31
2024-01-12T12:47:46.712Z,17.82
2024-01-12T12:50:14.474Z,15.89
2024-01-12T12:52:43.829Z,15.80
2024-01-12T12:55:10.764Z,15.21
2024-01-12T12:57:39.590Z,15.53
2024-01-12T13:00:11.745Z,15.98
2024-01-12T13:02:40.339Z,17.10
2024-01-12T13:05:09.248Z,19.90
2024-01-12T13:07:37.992Z,15.36
2024-01-12T13:10:06.787Z,14.24
2024-01-12T13:12:33.652Z,14.45
2024-01-12T13:15:00.532Z,15.33
2024-01-12T13:17:27.959Z,17.80
2024-01-12T13:19:54.747Z,14.65
2024-01-12T13:22:21.706Z,14.41
2024-01-12T13:24:48.329Z,13.72
2024-01-12T13:27:14.993Z,14.76
2024-01-12T13:29:41.635Z,16.11
2024-01-12T13:32:08.438Z,17.27
2024-01-12T13:34:35.211Z,15.19
2024-01-12T13:37:03.827Z,16.14
2024-01-12T13:39:31.485Z,14.97
2024-01-12T13:42:01.998Z,15.67
2024-01-12T13:44:29.404Z,15.11
2024-01-12T13:46:56.194Z,14.44
2024-01-12T13:49:23.542Z,14.03
2024-01-12T13:51:50.675Z,14.87
2024-01-12T13:54:17.731Z,14.68
2024-01-12T13:56:44.415Z,15.01
2024-01-12T13:59:11.234Z,17.76
2024-01-12T14:01:39.744Z,21.58
2024-01-12T14:04:07.835Z,16.33
2024-01-12T14:06:38.115Z,15.79
2024-01-12T14:09:07.914Z,17.74
2024-01-12T14:11:37.301Z,18.49
2024-01-12T14:14:04.800Z,16.74
2024-01-12T14:16:32.035Z,16.27
2024-01-12T14:18:58.815Z,16.39
2024-01-12T14:21:25.604Z,17.10
2024-01-12T14:23:52.358Z,16.09
2024-01-12T14:26:19.334Z,16.58
2024-01-12T14:28:47.674Z,16.84
2024-01-12T14:31:16.879Z,16.40
2024-01-12T14:33:46.370Z,16.60
2024-01-12T14:36:13.480Z,19.20
2024-01-12T14:38:40.156Z,16.45
2024-01-12T14:41:07.016Z,15.59
2024-01-12T14:43:33.613Z,15.99
2024-01-12T14:46:00.410Z,16.08
2024-01-12T14:48:27.403Z,16.24
2024-01-12T14:50:55.583Z,16.43
2024-01-12T14:53:23.576Z,16.11
2024-01-12T14:55:50.986Z,17.06
2024-01-12T14:58:17.867Z,17.08
2024-01-12T15:00:47.159Z,16.77
2024-01-12T15:03:13.899Z,16.46
2024-01-12T15:05:42.133Z,16.87
2024-01-12T15:08:10.467Z,16.47
2024-01-12T15:10:37.325Z,16.27
2024-01-12T15:13:06.759Z,16.57
2024-01-12T15:15:34.509Z,16.59
2024-01-12T15:18:01.730Z,16.84
2024-01-12T15:20:28.643Z,18.14
2024-01-12T15:23:01.484Z,16.23
2024-01-12T15:25:31.681Z,16.37
2024-01-12T15:27:58.683Z,17.04
2024-01-12T15:30:25.726Z,58.19
2024-01-12T15:32:52.902Z,54.02
2024-01-12T15:35:19.663Z,17.85
2024-01-12T15:37:46.201Z,22.03
2024-01-12T15:40:13.129Z,18.90
2024-01-12T15:42:45.324Z,23.74
2024-01-12T15:45:16.125Z,19.24
2024-01-12T15:47:43.001Z,18.59
2024-01-12T15:50:10.256Z,18.47
2024-01-12T15:52:36.917Z,17.93
2024-01-12T15:55:03.879Z,18.37
2024-01-12T15:57:30.582Z,18.02
2024-01-12T15:59:57.213Z,22.72
2024-01-12T16:02:23.844Z,21.81
2024-01-12T16:04:50.483Z,23.39
2024-01-12T16:07:18.825Z,24.01
2024-01-12T16:09:45.491Z,23.60
2024-01-12T16:12:12.151Z,23.65
2024-01-12T16:14:43.803Z,22.76
2024-01-12T16:17:11.042Z,18.18
2024-01-12T16:19:53.492Z,18.51
2024-01-12T16:22:20.268Z,17.40
2024-01-12T16:24:50.212Z,18.07
2024-01-12T16:27:17.523Z,19.36
2024-01-12T16:29:45.180Z,17.19
2024-01-12T16:32:12.099Z,18.70
2024-01-12T16:34:38.771Z,19.14
2024-01-12T16:37:05.410Z,17.77
2024-01-12T16:39:31.996Z,19.73
2024-01-12T16:41:58.752Z,17.69
2024-01-12T16:44:28.574Z,19.82
2024-01-12T16:46:55.338Z,20.19
2024-01-12T16:49:23.268Z,22.37
2024-01-12T16:51:50.045Z,26.56
2024-01-12T16:54:16.943Z,24.94
2024-01-12T16:56:43.978Z,24.85
2024-01-12T16:59:13.310Z,27.09
2024-01-12T17:01:40.441Z,27.44
2024-01-12T17:04:07.629Z,27.76
2024-01-12T17:06:40.782Z,26.95
2024-01-12T17:09:09.225Z,27.08
2024-01-12T17:11:36.865Z,29.06
2024-01-12T17:14:03.503Z,28.24
2024-01-12T17:16:41.431Z,27.64
2024-01-12T17:19:09.551Z,23.30
2024-01-12T17:21:36.329Z,22.02
2024-01-12T17:24:03.523Z,20.69
2024-01-12T17:26:30.240Z,21.40
2024-01-12T17:28:56.846Z,22.38
2024-01-12T17:31:23.657Z,24.83
2024-01-12T17:33:50.805Z,31.24
2024-01-12T17:36:17.558Z,31.48
2024-01-12T17:38:45.102Z,37.21
2024-01-12T17:41:11.905Z,37.02
2024-01-12T17:43:38.505Z,30.34
2024-01-12T17:46:05.160Z,29.60
2024-01-12T17:48:34.338Z,29.04
2024-01-12T17:51:01.138Z,34.78
2024-01-12T17:53:27.781Z,36.61
2024-01-12T17:55:54.416Z,30.14
2024-01-12T17:58:21.004Z,29.59
2024-01-12T18:00:47.632Z,34.11
2024-01-12T18:03:14.524Z,31.11
2024-01-12T18:05:41.513Z,32.07
2024-01-12T18:08:08.128Z,29.87
2024-01-12T18:10:34.989Z,29.62
2024-01-12T18:13:01.611Z,28.16
2024-01-12T18:15:28.189Z,28.77
2024-01-12T18:17:54.917Z,29.06
2024-01-12T18:20:21.868Z,29.18
2024-01-12T18:22:48.614Z,31.38
2024-01-12T18:25:16.858Z,30.13
2024-01-12T18:27:43.526Z,29.57
2024-01-12T18:30:10.400Z,29.20
2024-01-12T18:32:37.269Z,28.63
2024-01-12T18:35:04.438Z,29.22
2024-01-12T18:37:31.012Z,28.79
2024-01-12T18:39:57.751Z,28.53
2024-01-12T18:42:24.525Z,31.37
2024-01-12T18:44:51.613Z,35.40
2024-01-12T18:47:18.459Z,54.40
2024-01-12T18:49:45.020Z,44.36
2024-01-12T18:52:11.766Z,36.90
2024-01-12T18:54:38.444Z,31.85
2024-01-12T18:57:05.438Z,31.16
2024-01-12T18:59:32.064Z,30.90
2024-01-12T19:01:58.721Z,30.56
2024-01-12T19:04:25.271Z,30.88
2024-01-12T19:06:51.895Z,30.33
2024-01-12T19:09:18.632Z,37.01
2024-01-12T19:11:45.760Z,38.87
2024-01-12T19:14:13.544Z,35.80
2024-01-12T19:16:42.213Z,34.05
2024-01-12T19:19:08.870Z,36.54
2024-01-12T19:21:35.575Z,38.70
2024-01-12T19:24:02.190Z,37.38
2024-01-12T19:26:28.900Z,37.61
2024-01-12T19:28:55.531Z,34.97
2024-01-12T19:31:24.938Z,32.99
2024-01-12T19:33:51.974Z,31.37
2024-01-12T19:36:19.828Z,27.68
2024-01-12T19:38:46.932Z,27.25
2024-01-12T19:41:29.845Z,27.23
2024-01-12T19:43:57.109Z,28.14
2024-01-12T19:46:23.716Z,31.12
2024-01-12T19:48:54.188Z,32.18
2024-01-12T19:51:22.921Z,32.28
2024-01-12T19:53:49.550Z,31.05
2024-01-12T19:56:17.298Z,32.82
2024-01-12T19:58:44.494Z,32.37
2024-01-12T20:01:11.188Z,33.02
2024-01-12T20:03:39.400Z,32.09
2024-01-12T20:06:06.337Z,31.42
2024-01-12T20:08:33.102Z,31.05
2024-01-12T20:10:59.964Z,32.55
2024-01-12T20:13:26.587Z,29.38
2024-01-12T20:15:53.190Z,31.02
2024-01-12T20:18:20.024Z,30.57
2024-01-12T20:20:46.771Z,29.30
2024-01-12T20:23:13.347Z,28.85
2024-01-12T20:25:39.952Z,29.19
2024-01-12T20:28:08.009Z,28.01
2024-01-12T20:30:35.750Z,27.45
2024-01-12T20:33:02.697Z,28.60
2024-01-12T20:35:29.487Z,33.63
2024-01-12T20:37:56.368Z,32.23
2024-01-12T20:40:24.522Z,31.01
2024-01-12T20:42:51.117Z,30.87
2024-01-12T20:45:18.104Z,32.65
2024-01-12T20:47:45.676Z,34.37
2024-01-12T20:50:12.404Z,35.81
2024-01-12T20:52:39.095Z,34.48
2024-01-12T20:55:06.641Z,34.37
2024-01-12T20:57:33.781Z,34.33
2024-01-12T21:00:00.528Z,31.83
2024-01-12T21:02:27.302Z,31.74
2024-01-12T21:04:54.040Z,33.56
2024-01-12T21:07:21.253Z,36.65
2024-01-12T21:09:47.868Z,36.53
2024-01-12T21:12:14.619Z,37.24
2024-01-12T21:14:41.350Z,33.56
2024-01-12T21:17:08.585Z,32.10
2024-01-12T21:19:35.378Z,33.99
2024-01-12T21:22:02.017Z,36.11
2024-01-12T21:24:28.610Z,38.21
2024-01-12T21:26:55.255Z,36.39
2024-01-12T21:29:22.061Z,37.28
2024-01-12T21:31:48.685Z,35.82
2024-01-12T21:34:15.489Z,33.79
2024-01-12T21:36:42.598Z,33.94
2024-01-12T21:39:10.118Z,35.71
2024-01-12T21:41:37.485Z,35.54
2024-01-12T21:44:04.331Z,33.51
2024-01-12T21:46:31.591Z,33.74
2024-01-12T21:48:58.450Z,32.07
2024-01-12T21:51:25.152Z,31.65
2024-01-12T21:53:51.849Z,32.19
2024-01-12T21:56:18.867Z,32.42
2024-01-12T21:58:47.748Z,32.64
2024-01-12T22:01:15.979Z,32.95
2024-01-12T22:03:42.616Z,30.92
2024-01-12T22:06:09.384Z,35.55
2024-01-12T22:08:36.096Z,40.64
2024-01-12T22:11:02.845Z,42.43
2024-01-12T22:13:29.462Z,44.80
2024-01-12T22:15:56.656Z,39.24
2024-01-12T22:18:24.400Z,37.32
2024-01-12T22:20:52.676Z,38.96
2024-01-12T22:23:19.374Z,39.83
2024-01-12T22:25:45.982Z,38.44
2024-01-12T22:28:12.707Z,41.73
2024-01-12T22:30:39.287Z,35.48
2024-01-12T22:33:06.493Z,36.48
2024-01-12T22:35:33.256Z,39.19
2024-01-12T22:38:00.047Z,38.26
2024-01-12T22:40:26.674Z,34.07
2024-01-12T22:42:53.231Z,35.00
2024-01-12T22:45:19.909Z,35.58
2024-01-12T22:47:46.576Z,36.52
2024-01-12T22:50:15.324Z,33.26
2024-01-12T22:52:41.896Z,33.67
2024-01-12T22:55:09.538Z,34.81
2024-01-12T22:57:36.095Z,36.12
2024-01-12T23:00:05.326Z,33.46
2024-01-12T23:02:33.318Z,31.92
2024-01-12T23:05:01.120Z,34.68
2024-01-12T23:07:29.811Z,35.13
2024-01-12T23:09:56.495Z,35.39
2024-01-12T23:12:23.074Z,34.27
2024-01-12T23:14:49.757Z,35.86
2024-01-12T23:17:16.388Z,36.52
2024-01-12T23:19:42.943Z,49.87
2024-01-12T23:22:09.533Z,39.67
2024-01-12T23:24:36.125Z,34.93
2024-01-12T23:27:02.818Z,32.51
2024-01-12T23:29:32.680Z,35.90
2024-01-12T23:32:02.705Z,37.52
2024-01-12T23:34:29.475Z,31.98
2024-01-12T23:36:56.079Z,32.92
2024-01-12T23:39:22.761Z,33.81
2024-01-12T23:41:49.453Z,31.87
2024-01-12T23:44:16.018Z,31.85
2024-01-12T23:46:42.634Z,29.76
2024-01-12T23:49:09.427Z,28.50
2024-01-12T23:51:36.203Z,29.18
2024-01-12T23:54:02.861Z,30.81
2024-01-12T23:56:29.757Z,30.33
2024-01-12T23:58:56.436Z,31.50
